Time;durP1;ratioP1;P1;durP2;ratioP2;P2;SDS_P1;SDS_P2;PMS_P1;PMS_P2;Temp;Humidity;BMP_temperature;BMP_pressure;BME280_temperature;BME280_humidity;BME280_pressure;Samples;Min_cycle;Max_cycle;Signal;HPM_P1;HPM_P2
2024/01/01 00:00:33;;;;;;;182.68;52.38;;;;;;;;;;10342384;23;20024;-95
2024/01/01 00:04:58;;;;;;;287.50;88.10;;;;;;;;;;10341134;23;20024;-96
2024/01/01 00:09:01;;;;;;;38.75;17.23;;;;;;;;;;10342407;23;20101;-95
2024/01/01 00:13:05;;;;;;;34.35;16.50;;;;;;;;;;10341704;23;20023;-96
2024/01/01 00:17:08;;;;;;;33.75;17.65;;;;;;;;;;10342418;23;20082;-96
2024/01/01 00:21:11;;;;;;;31.95;15.40;;;;;;;;;;10342484;23;20440;-96
2024/01/01 00:25:14;;;;;;;34.88;16.50;;;;;;;;;;10342259;23;20022;-96
2024/01/01 00:29:18;;;;;;;36.10;17.13;;;;;;;;;;10315831;23;20392;-95
2024/01/01 00:33:21;;;;;;;38.50;17.50;;;;;;;;;;10340517;23;20074;-92
2024/01/01 00:37:24;;;;;;;37.95;16.90;;;;;;;;;;10339467;23;20016;-93
2024/01/01 00:41:27;;;;;;;40.85;18.95;;;;;;;;;;10340230;23;20353;-95
2024/01/01 00:45:31;;;;;;;32.35;16.23;;;;;;;;;;10340117;23;20019;-94
2024/01/01 00:49:34;;;;;;;33.25;16.85;;;;;;;;;;10339692;23;20042;-91
2024/01/01 00:53:37;;;;;;;37.13;16.13;;;;;;;;;;10340030;23;20020;-92
2024/01/01 00:57:40;;;;;;;32.03;15.93;;;;;;;;;;10340016;23;20094;-92
2024/01/01 01:01:44;;;;;;;36.80;17.38;;;;;;;;;;10340040;23;20023;-92
2024/01/01 01:05:47;;;;;;;37.80;17.60;;;;;;;;;;10339622;23;20085;-91
2024/01/01 01:09:50;;;;;;;39.22;18.17;;;;;;;;;;10339676;23;20091;-92
2024/01/01 01:13:53;;;;;;;42.60;19.13;;;;;;;;;;10340393;23;20340;-92
2024/01/01 01:18:08;;;;;;;37.22;18.27;;;;;;;;;;10339446;23;20091;-93
2024/01/01 01:22:11;;;;;;;42.03;18.90;;;;;;;;;;10339507;23;20464;-94
2024/01/01 01:26:14;;;;;;;41.63;18.73;;;;;;;;;;10339230;23;20073;-94
2024/01/01 01:30:17;;;;;;;41.67;19.40;;;;;;;;;;10339568;23;20020;-94
2024/01/01 01:34:22;;;;;;;45.58;19.42;;;;;;;;;;10339869;23;20020;-93
2024/01/01 01:38:24;;;;;;;52.75;21.27;;;;;;;;;;10312249;23;20325;-92
2024/01/01 01:42:27;;;;;;;54.55;22.98;;;;;;;;;;10339219;23;20024;-92
2024/01/01 01:46:30;;;;;;;46.78;20.70;;;;;;;;;;10339270;23;20086;-95
2024/01/01 01:50:35;;;;;;;52.38;23.10;;;;;;;;;;10339258;23;20504;-92
2024/01/01 01:54:38;;;;;;;55.17;26.80;;;;;;;;;;10338965;23;20112;-95
2024/01/01 01:58:41;;;;;;;66.30;26.52;;;;;;;;;;10312638;23;20526;-92
2024/01/01 02:02:45;;;;;;;62.05;26.23;;;;;;;;;;10338692;23;20457;-91
2024/01/01 02:06:49;;;;;;;148.65;67.25;;;;;;;;;;10338778;23;20020;-93
2024/01/01 02:10:52;;;;;;;94.38;43.58;;;;;;;;;;10339010;23;20020;-92
2024/01/01 02:14:55;;;;;;;88.85;42.33;;;;;;;;;;10338737;23;20452;-91
2024/01/01 02:18:58;;;;;;;86.50;39.58;;;;;;;;;;10339047;23;20382;-96
2024/01/01 02:23:02;;;;;;;74.88;28.52;;;;;;;;;;10339303;23;20020;-95
2024/01/01 02:27:06;;;;;;;81.38;30.00;;;;;;;;;;10339730;23;20036;-94
2024/01/01 02:31:08;;;;;;;113.88;47.78;;;;;;;;;;10339272;23;20024;-94
2024/01/01 02:35:11;;;;;;;78.25;34.10;;;;;;;;;;10339212;23;20019;-95
2024/01/01 02:39:16;;;;;;;107.07;47.53;;;;;;;;;;10339439;23;20166;-95
2024/01/01 02:43:19;;;;;;;199.68;86.15;;;;;;;;;;10339740;23;20344;-95
2024/01/01 02:47:22;;;;;;;85.97;38.25;;;;;;;;;;10339308;23;20016;-95
2024/01/01 02:51:25;;;;;;;61.42;29.48;;;;;;;;;;10339389;23;20039;-95
2024/01/01 02:55:29;;;;;;;38.05;18.30;;;;;;;;;;10339410;23;20016;-95
2024/01/01 02:59:33;;;;;;;44.97;18.35;;;;;;;;;;10338556;23;20016;-94
2024/01/01 03:03:36;;;;;;;59.72;29.40;;;;;;;;;;10338785;23;20020;-94
2024/01/01 03:07:39;;;;;;;57.28;24.23;;;;;;;;;;10338553;23;20016;-94
2024/01/01 03:11:43;;;;;;;63.03;28.60;;;;;;;;;;10337845;23;20032;-94
2024/01/01 03:15:46;;;;;;;71.38;32.13;;;;;;;;;;10336980;23;20388;-94
2024/01/01 03:19:50;;;;;;;77.43;31.42;;;;;;;;;;10337145;23;20344;-95
2024/01/01 03:23:53;;;;;;;53.55;23.85;;;;;;;;;;10337166;23;20016;-94
2024/01/01 03:27:59;;;;;;;78.57;34.30;;;;;;;;;;10336963;23;20095;-94
2024/01/01 03:32:02;;;;;;;72.25;26.77;;;;;;;;;;10354737;23;20441;-94
2024/01/01 03:36:05;;;;;;;64.20;26.63;;;;;;;;;;10337345;23;20468;-95
2024/01/01 03:40:09;;;;;;;71.07;28.88;;;;;;;;;;10339377;23;20100;-94
2024/01/01 03:44:23;;;;;;;86.93;32.83;;;;;;;;;;10341171;23;20099;-93
2024/01/01 03:48:29;;;;;;;74.13;31.10;;;;;;;;;;10331033;23;20024;-90
2024/01/01 03:52:32;;;;;;;85.00;34.95;;;;;;;;;;10314152;23;20027;-92
2024/01/01 03:56:35;;;;;;;86.45;35.40;;;;;;;;;;10340734;23;20027;-92
2024/01/01 04:00:39;;;;;;;60.70;28.42;;;;;;;;;;10314552;23;20051;-94
2024/01/01 04:04:44;;;;;;;72.20;29.17;;;;;;;;;;10340417;23;20020;-92
2024/01/01 04:08:47;;;;;;;105.50;38.28;;;;;;;;;;10357106;23;20349;-91
2024/01/01 04:12:50;;;;;;;64.20;26.90;;;;;;;;;;10340612;23;20074;-91
2024/01/01 04:16:54;;;;;;;67.25;27.38;;;;;;;;;;10341021;23;20086;-93
2024/01/01 04:20:57;;;;;;;67.88;27.60;;;;;;;;;;10340683;23;20066;-94
2024/01/01 04:25:00;;;;;;;75.70;30.52;;;;;;;;;;10340426;23;20026;-94
2024/01/01 04:29:03;;;;;;;94.35;41.30;;;;;;;;;;10340423;23;20055;-92
2024/01/01 04:33:07;;;;;;;88.07;35.60;;;;;;;;;;10340365;23;20055;-93
2024/01/01 04:37:10;;;;;;;46.08;18.42;;;;;;;;;;10340208;23;20476;-93
2024/01/01 04:41:13;;;;;;;50.88;21.75;;;;;;;;;;10340131;23;20027;-93
2024/01/01 04:45:16;;;;;;;50.33;19.30;;;;;;;;;;10340315;23;20100;-94
2024/01/01 04:49:20;;;;;;;62.38;26.80;;;;;;;;;;10341143;23;20019;-95
2024/01/01 04:53:23;;;;;;;67.95;26.27;;;;;;;;;;10313370;23;20016;-94
2024/01/01 04:57:26;;;;;;;49.75;21.50;;;;;;;;;;10340384;23;20445;-92
2024/01/01 05:01:29;;;;;;;45.33;21.55;;;;;;;;;;10313952;23;20099;-93
2024/01/01 05:05:34;;;;;;;54.50;24.85;;;;;;;;;;10342437;23;20016;-94
2024/01/01 05:09:36;;;;;;;47.15;21.40;;;;;;;;;;10340793;23;20016;-95
2024/01/01 05:13:39;;;;;;;54.15;25.23;;;;;;;;;;10341356;23;20095;-93
2024/01/01 05:17:42;;;;;;;37.90;17.10;;;;;;;;;;10340448;23;20027;-94
2024/01/01 05:21:47;;;;;;;59.28;26.98;;;;;;;;;;10339781;23;20023;-93
2024/01/01 05:25:49;;;;;;;40.40;18.08;;;;;;;;;;10339446;23;20403;-93
2024/01/01 05:29:52;;;;;;;64.85;29.02;;;;;;;;;;10339576;23;20016;-93
2024/01/01 05:33:55;;;;;;;75.90;31.70;;;;;;;;;;10339720;23;20028;-94
2024/01/01 05:37:59;;;;;;;68.50;30.33;;;;;;;;;;10340223;23;20779;-92
2024/01/01 05:42:02;;;;;;;57.47;29.35;;;;;;;;;;10339382;23;20052;-94
2024/01/01 05:46:06;;;;;;;60.92;27.23;;;;;;;;;;10339221;23;20079;-94
2024/01/01 05:50:11;;;;;;;94.45;40.92;;;;;;;;;;10355914;23;20012;-93
2024/01/01 05:54:15;;;;;;;93.45;37.28;;;;;;;;;;10339744;23;20095;-93
2024/01/01 05:58:18;;;;;;;114.97;46.15;;;;;;;;;;10338960;23;20051;-93
2024/01/01 06:02:21;;;;;;;93.63;36.90;;;;;;;;;;10338600;23;20027;-92
2024/01/01 06:06:25;;;;;;;56.65;26.63;;;;;;;;;;10338184;23;20059;-94
2024/01/01 06:10:29;;;;;;;39.30;18.73;;;;;;;;;;10338465;23;20016;-91
2024/01/01 06:14:31;;;;;;;63.28;27.27;;;;;;;;;;10313148;23;20480;-92
2024/01/01 06:18:34;;;;;;;71.90;32.05;;;;;;;;;;10338741;23;20148;-93
2024/01/01 06:22:37;;;;;;;111.78;46.30;;;;;;;;;;10339571;23;20058;-92
2024/01/01 06:26:41;;;;;;;106.07;44.70;;;;;;;;;;10340016;23;20023;-94
2024/01/01 06:30:48;;;;;;;108.15;43.90;;;;;;;;;;10339851;23;20087;-95
2024/01/01 06:34:51;;;;;;;93.78;41.95;;;;;;;;;;10356722;23;20050;-94
2024/01/01 06:38:54;;;;;;;108.72;47.38;;;;;;;;;;10339733;23;20460;-94
2024/01/01 06:42:58;;;;;;;114.20;47.47;;;;;;;;;;10339213;23;20020;-94
2024/01/01 06:47:03;;;;;;;57.42;23.45;;;;;;;;;;10339681;23;20087;-94
2024/01/01 06:51:11;;;;;;;66.43;29.20;;;;;;;;;;10338731;23;20074;-92
2024/01/01 06:55:16;;;;;;;60.45;24.40;;;;;;;;;;10354376;23;20016;-93
2024/01/01 06:59:20;;;;;;;60.25;26.30;;;;;;;;;;10339395;23;20082;-91
2024/01/01 07:03:23;;;;;;;67.30;30.67;;;;;;;;;;10340418;23;20020;-94
2024/01/01 07:07:26;;;;;;;87.45;41.70;;;;;;;;;;10337943;23;20020;-92
2024/01/01 07:11:28;;;;;;;73.47;34.40;;;;;;;;;;10311271;23;20024;-93
2024/01/01 07:15:32;;;;;;;88.68;38.42;;;;;;;;;;10340147;23;20351;-94
2024/01/01 07:19:35;;;;;;;101.95;45.97;;;;;;;;;;10341523;23;20026;-92
2024/01/01 07:23:38;;;;;;;87.85;41.67;;;;;;;;;;10341422;23;20408;-91
2024/01/01 07:27:41;;;;;;;107.97;47.22;;;;;;;;;;10341522;23;20024;-92
2024/01/01 07:31:45;;;;;;;89.32;38.45;;;;;;;;;;10342017;23;20150;-94
2024/01/01 07:35:48;;;;;;;67.72;30.38;;;;;;;;;;10341467;23;20031;-90
2024/01/01 07:39:51;;;;;;;56.40;25.55;;;;;;;;;;10341130;23;20348;-94
2024/01/01 07:43:54;;;;;;;74.55;29.45;;;;;;;;;;10341347;23;20016;-94
2024/01/01 07:47:58;;;;;;;133.57;56.75;;;;;;;;;;10341807;23;20084;-94
2024/01/01 07:52:01;;;;;;;175.57;74.22;;;;;;;;;;10341451;23;20023;-93
2024/01/01 07:56:05;;;;;;;190.23;80.10;;;;;;;;;;10341694;23;20020;-92
2024/01/01 08:00:11;;;;;;;142.30;61.88;;;;;;;;;;10342196;23;20054;-96
2024/01/01 08:04:16;;;;;;;156.23;62.10;;;;;;;;;;10355197;23;20016;-96
2024/01/01 08:08:19;;;;;;;113.60;49.53;;;;;;;;;;10360842;23;20024;-95
2024/01/01 08:12:22;;;;;;;135.02;52.60;;;;;;;;;;10342598;23;20031;-95
2024/01/01 08:16:25;;;;;;;95.45;39.88;;;;;;;;;;10342591;23;20091;-94
2024/01/01 08:20:30;;;;;;;95.15;40.10;;;;;;;;;;10343494;23;20047;-96
2024/01/01 08:24:33;;;;;;;81.13;35.78;;;;;;;;;;10342005;23;20040;-96
2024/01/01 08:28:35;;;;;;;80.63;32.35;;;;;;;;;;10342121;23;20088;-96
2024/01/01 08:32:38;;;;;;;77.38;33.25;;;;;;;;;;10340590;23;20095;-91
2024/01/01 08:36:42;;;;;;;87.28;33.75;;;;;;;;;;10316069;23;20016;-93
2024/01/01 08:40:45;;;;;;;92.90;37.08;;;;;;;;;;10339026;23;20452;-93
2024/01/01 08:44:48;;;;;;;94.53;36.00;;;;;;;;;;10339175;23;20043;-92
2024/01/01 08:48:51;;;;;;;77.65;31.23;;;;;;;;;;10339111;23;20448;-91
2024/01/01 08:52:56;;;;;;;73.78;30.70;;;;;;;;;;10339033;23;20070;-92
2024/01/01 08:56:59;;;;;;;81.75;31.98;;;;;;;;;;10338927;23;20031;-93
2024/01/01 09:01:01;;;;;;;97.32;35.30;;;;;;;;;;10339058;23;20031;-92
2024/01/01 09:05:05;;;;;;;79.30;29.98;;;;;;;;;;10338665;23;20462;-89
2024/01/01 09:09:10;;;;;;;79.85;30.73;;;;;;;;;;10338814;23;20107;-91
2024/01/01 09:13:13;;;;;;;75.95;28.48;;;;;;;;;;10338459;23;20023;-90
2024/01/01 09:17:15;;;;;;;70.60;28.52;;;;;;;;;;10338516;23;20029;-90
2024/01/01 09:21:18;;;;;;;81.03;30.48;;;;;;;;;;10338613;23;20473;-92
2024/01/01 09:25:23;;;;;;;95.68;33.40;;;;;;;;;;10338120;23;20020;-92
2024/01/01 09:29:26;;;;;;;95.72;34.97;;;;;;;;;;10338252;23;20016;-91
2024/01/01 09:33:29;;;;;;;100.60;33.28;;;;;;;;;;10338059;23;20020;-91
2024/01/01 09:37:32;;;;;;;80.75;30.85;;;;;;;;;;10338685;23;20016;-91
2024/01/01 09:41:37;;;;;;;94.95;33.67;;;;;;;;;;10337683;23;20627;-92
2024/01/01 09:45:40;;;;;;;69.30;28.70;;;;;;;;;;10337736;23;20046;-92
2024/01/01 09:49:43;;;;;;;68.82;27.70;;;;;;;;;;10338264;23;20043;-91
2024/01/01 09:53:46;;;;;;;60.53;26.95;;;;;;;;;;10339578;23;20062;-92
2024/01/01 09:57:50;;;;;;;60.08;28.13;;;;;;;;;;10341660;23;20008;-91
2024/01/01 10:02:04;;;;;;;58.60;24.17;;;;;;;;;;10339849;23;20024;-91
2024/01/01 10:06:11;;;;;;;62.50;28.23;;;;;;;;;;10345896;23;20349;-91
2024/01/01 10:10:27;;;;;;;60.72;25.45;;;;;;;;;;10354601;23;20020;-91
2024/01/01 10:14:31;;;;;;;62.65;28.00;;;;;;;;;;10337746;23;20023;-91
2024/01/01 10:18:35;;;;;;;66.45;26.10;;;;;;;;;;10337384;23;20445;-90
2024/01/01 10:22:39;;;;;;;79.72;32.13;;;;;;;;;;10310530;23;20016;-91
2024/01/01 10:26:44;;;;;;;77.00;32.58;;;;;;;;;;10337597;23;20325;-92
2024/01/01 10:30:49;;;;;;;78.00;33.28;;;;;;;;;;10354180;23;20097;-91
2024/01/01 10:34:52;;;;;;;64.00;26.90;;;;;;;;;;10337473;23;20114;-92
2024/01/01 10:38:57;;;;;;;77.03;30.45;;;;;;;;;;10337314;23;20035;-94
2024/01/01 10:43:02;;;;;;;76.72;30.75;;;;;;;;;;10337389;23;20099;-92
2024/01/01 10:47:09;;;;;;;61.13;28.10;;;;;;;;;;10337458;23;20023;-91
2024/01/01 10:51:42;;;;;;;68.50;27.67;;;;;;;;;;10354009;23;20019;-91
2024/01/01 10:56:06;;;;;;;69.68;26.67;;;;;;;;;;10337011;23;20051;-90
2024/01/01 11:00:23;;;;;;;68.60;27.27;;;;;;;;;;10357793;23;20096;-92
2024/01/01 11:04:28;;;;;;;49.90;22.13;;;;;;;;;;10355279;23;20452;-91
2024/01/01 11:08:31;;;;;;;44.70;19.40;;;;;;;;;;10354389;23;20016;-92
2024/01/01 11:12:35;;;;;;;34.83;16.92;;;;;;;;;;10338063;23;20016;-93
2024/01/01 11:16:50;;;;;;;46.35;20.38;;;;;;;;;;10338031;23;20468;-92
2024/01/01 11:21:01;;;;;;;30.33;13.52;;;;;;;;;;10355106;23;20016;-90
2024/01/01 11:25:04;;;;;;;27.42;11.63;;;;;;;;;;10354488;23;20027;-92
2024/01/01 11:29:27;;;;;;;9.65;5.85;;;;;;;;;;10338142;23;20440;-92
2024/01/01 11:33:31;;;;;;;18.42;9.02;;;;;;;;;;10337516;23;20055;-95
2024/01/01 11:37:36;;;;;;;16.58;8.15;;;;;;;;;;10337415;23;20043;-92
2024/01/01 11:41:39;;;;;;;16.90;8.57;;;;;;;;;;10353855;23;20066;-91
2024/01/01 11:45:42;;;;;;;15.43;7.72;;;;;;;;;;10309930;23;20499;-94
2024/01/01 11:49:54;;;;;;;15.52;8.75;;;;;;;;;;10336978;23;20095;-92
2024/01/01 11:54:09;;;;;;;19.85;9.40;;;;;;;;;;10310318;23;20020;-91
2024/01/01 12:02:47;;;;;;;19.60;9.48;;;;;;;;;;10338775;23;20448;-91
2024/01/01 12:06:51;;;;;;;27.40;14.85;;;;;;;;;;10341587;23;20043;-92
2024/01/01 12:11:01;;;;;;;23.85;10.90;;;;;;;;;;10340620;23;20024;-91
2024/01/01 12:15:16;;;;;;;24.23;10.40;;;;;;;;;;10313972;23;20024;-92
2024/01/01 12:19:22;;;;;;;26.52;10.13;;;;;;;;;;10313262;23;20506;-91
2024/01/01 12:23:27;;;;;;;25.67;9.88;;;;;;;;;;10357662;23;20020;-92
2024/01/01 12:27:31;;;;;;;26.17;9.07;;;;;;;;;;10339746;23;20325;-92
2024/01/01 12:31:35;;;;;;;21.02;10.32;;;;;;;;;;10339487;23;20023;-91
2024/01/01 12:35:38;;;;;;;22.85;9.98;;;;;;;;;;10340139;23;20095;-91
2024/01/01 12:39:41;;;;;;;26.20;11.07;;;;;;;;;;10339415;23;20023;-91
2024/01/01 12:43:45;;;;;;;23.30;10.90;;;;;;;;;;10339388;23;20020;-93
2024/01/01 12:47:48;;;;;;;24.10;10.45;;;;;;;;;;10339367;23;20462;-92
2024/01/01 12:51:51;;;;;;;24.00;10.85;;;;;;;;;;10338997;23;20017;-92
2024/01/01 12:55:54;;;;;;;24.23;10.60;;;;;;;;;;10338723;23;20540;-92
2024/01/01 13:00:02;;;;;;;21.42;11.38;;;;;;;;;;10338623;23;20447;-92
2024/01/01 13:04:06;;;;;;;26.58;12.68;;;;;;;;;;10355994;23;20020;-92
2024/01/01 13:08:09;;;;;;;28.08;14.02;;;;;;;;;;10338673;23;20077;-92
2024/01/01 13:12:12;;;;;;;27.70;12.38;;;;;;;;;;10338684;23;20441;-92
2024/01/01 13:16:16;;;;;;;23.38;10.32;;;;;;;;;;10338956;23;20077;-92
2024/01/01 13:20:19;;;;;;;16.70;8.02;;;;;;;;;;10338633;23;20020;-91
2024/01/01 13:24:22;;;;;;;13.85;7.13;;;;;;;;;;10339268;23;20515;-92
2024/01/01 13:28:25;;;;;;;16.08;8.20;;;;;;;;;;10312169;23;20062;-92
2024/01/01 13:32:30;;;;;;;21.25;9.80;;;;;;;;;;10339356;23;20220;-92
2024/01/01 13:36:33;;;;;;;22.08;9.93;;;;;;;;;;10338952;23;20023;-91
2024/01/01 13:40:39;;;;;;;27.10;11.48;;;;;;;;;;10338661;23;20170;-92
2024/01/01 13:44:42;;;;;;;25.42;10.90;;;;;;;;;;10338480;23;20111;-92
2024/01/01 13:48:47;;;;;;;27.38;13.68;;;;;;;;;;10339065;23;20012;-93
2024/01/01 13:52:58;;;;;;;27.52;10.35;;;;;;;;;;10341807;23;20020;-92
2024/01/01 13:57:01;;;;;;;24.65;10.60;;;;;;;;;;10361697;23;20016;-92
2024/01/01 14:01:05;;;;;;;31.73;12.68;;;;;;;;;;10340946;23;20094;-93
2024/01/01 14:05:12;;;;;;;22.60;10.15;;;;;;;;;;10338231;23;20107;-91
2024/01/01 14:09:21;;;;;;;23.42;11.00;;;;;;;;;;10355622;23;20020;-92
2024/01/01 14:13:24;;;;;;;25.65;10.05;;;;;;;;;;10338311;23;20016;-93
2024/01/01 14:17:27;;;;;;;26.45;11.55;;;;;;;;;;10338650;23;20526;-92
2024/01/01 14:21:34;;;;;;;26.48;10.73;;;;;;;;;;10338147;23;20452;-92
2024/01/01 14:25:38;;;;;;;23.88;9.88;;;;;;;;;;10354681;23;20023;-92
2024/01/01 14:29:45;;;;;;;20.42;9.18;;;;;;;;;;10338668;23;20095;-92
2024/01/01 14:33:48;;;;;;;22.50;10.80;;;;;;;;;;10339264;23;20040;-93
2024/01/01 14:37:54;;;;;;;26.85;12.27;;;;;;;;;;10338751;23;20027;-91
2024/01/01 14:41:57;;;;;;;24.17;11.10;;;;;;;;;;10338450;23;20020;-91
2024/01/01 14:46:01;;;;;;;26.58;10.15;;;;;;;;;;10340673;23;20361;-93
2024/01/01 14:50:05;;;;;;;27.17;10.80;;;;;;;;;;10338165;23;20016;-92
2024/01/01 14:54:09;;;;;;;24.20;10.50;;;;;;;;;;10337457;23;20052;-92
2024/01/01 14:58:12;;;;;;;21.23;10.63;;;;;;;;;;10337833;23;20314;-93
2024/01/01 15:02:15;;;;;;;22.05;9.20;;;;;;;;;;10341233;23;20020;-93
2024/01/01 15:06:19;;;;;;;22.40;10.20;;;;;;;;;;10311762;23;20377;-91
2024/01/01 15:10:23;;;;;;;21.88;9.90;;;;;;;;;;10338872;23;20633;-91
2024/01/01 15:14:27;;;;;;;23.40;9.98;;;;;;;;;;10338153;23;20376;-93
2024/01/01 15:18:33;;;;;;;19.77;9.38;;;;;;;;;;10338830;23;20104;-91
2024/01/01 15:22:36;;;;;;;23.27;9.65;;;;;;;;;;10310522;23;20020;-91
2024/01/01 15:26:41;;;;;;;19.80;9.23;;;;;;;;;;10337695;23;20070;-91
2024/01/01 15:30:47;;;;;;;21.77;9.90;;;;;;;;;;10355470;23;20016;-91
2024/01/01 15:34:53;;;;;;;25.23;10.98;;;;;;;;;;10340793;23;20055;-93
2024/01/01 15:39:02;;;;;;;22.40;9.65;;;;;;;;;;10356983;23;20422;-93
2024/01/01 15:43:09;;;;;;;28.40;11.32;;;;;;;;;;10340061;23;20012;-91
2024/01/01 15:47:14;;;;;;;29.73;11.65;;;;;;;;;;10357178;23;20016;-91
2024/01/01 15:51:22;;;;;;;32.30;12.18;;;;;;;;;;10340485;23;20016;-92
2024/01/01 15:55:25;;;;;;;24.67;11.35;;;;;;;;;;10356953;23;20479;-92
2024/01/01 15:59:30;;;;;;;27.50;12.38;;;;;;;;;;10339870;23;20035;-92
2024/01/01 16:03:36;;;;;;;28.63;12.20;;;;;;;;;;10340246;23;20066;-92
2024/01/01 16:07:39;;;;;;;30.27;12.57;;;;;;;;;;10361304;23;20039;-93
2024/01/01 16:11:42;;;;;;;41.78;15.50;;;;;;;;;;10342097;23;20020;-91
2024/01/01 16:15:54;;;;;;;32.20;14.93;;;;;;;;;;10342201;23;20020;-92
2024/01/01 16:20:00;;;;;;;31.98;12.05;;;;;;;;;;10339727;23;20020;-92
2024/01/01 16:24:04;;;;;;;27.90;11.90;;;;;;;;;;10342379;23;20020;-91
2024/01/01 16:28:07;;;;;;;33.65;12.25;;;;;;;;;;10314024;23;20070;-93
2024/01/01 16:32:20;;;;;;;34.65;13.90;;;;;;;;;;10339668;23;20027;-91
2024/01/01 16:36:23;;;;;;;35.33;13.75;;;;;;;;;;10358042;23;20021;-93
2024/01/01 16:40:27;;;;;;;33.63;13.35;;;;;;;;;;10339752;23;20087;-92
2024/01/01 16:44:30;;;;;;;29.88;12.52;;;;;;;;;;10340025;23;20020;-91
2024/01/01 16:48:34;;;;;;;34.72;12.85;;;;;;;;;;10311947;23;20019;-91
2024/01/01 16:52:38;;;;;;;32.33;13.48;;;;;;;;;;10339273;23;20066;-94
2024/01/01 16:56:41;;;;;;;40.22;14.73;;;;;;;;;;10339638;23;20043;-93
2024/01/01 17:00:47;;;;;;;37.90;15.35;;;;;;;;;;10338717;23;20056;-92
2024/01/01 17:04:52;;;;;;;30.08;14.65;;;;;;;;;;10356610;23;20119;-92
2024/01/01 17:08:55;;;;;;;26.17;12.32;;;;;;;;;;10339358;23;20022;-91
2024/01/01 17:12:58;;;;;;;35.05;15.18;;;;;;;;;;10338776;23;20044;-93
2024/01/01 17:21:31;;;;;;;42.28;16.40;;;;;;;;;;10343767;23;20070;-93
2024/01/01 17:25:35;;;;;;;40.00;15.90;;;;;;;;;;10312096;23;20059;-93
2024/01/01 17:29:38;;;;;;;36.25;14.68;;;;;;;;;;10338743;23;20020;-92
2024/01/01 17:33:44;;;;;;;30.88;15.60;;;;;;;;;;10339737;23;20020;-91
2024/01/01 17:37:49;;;;;;;35.13;15.25;;;;;;;;;;10355952;23;20020;-92
2024/01/01 17:41:51;;;;;;;41.35;17.30;;;;;;;;;;10311689;23;20020;-91
2024/01/01 17:45:54;;;;;;;38.35;17.70;;;;;;;;;;10339915;23;20402;-91
2024/01/01 17:50:00;;;;;;;34.42;13.32;;;;;;;;;;10340996;23;20345;-93
2024/01/01 17:54:05;;;;;;;33.00;15.32;;;;;;;;;;10355455;23;20055;-93
2024/01/01 17:58:08;;;;;;;35.47;16.63;;;;;;;;;;10337998;23;20356;-92
2024/01/01 18:02:11;;;;;;;33.95;15.65;;;;;;;;;;10338536;23;20016;-92
2024/01/01 18:06:14;;;;;;;38.85;15.40;;;;;;;;;;10310733;23;20020;-91
2024/01/01 18:10:19;;;;;;;39.63;16.58;;;;;;;;;;10337729;23;20020;-93
2024/01/01 18:14:22;;;;;;;35.47;14.95;;;;;;;;;;10337396;23;20020;-94
2024/01/01 18:18:25;;;;;;;43.35;17.45;;;;;;;;;;10337642;23;20043;-92
2024/01/01 18:22:29;;;;;;;40.10;15.38;;;;;;;;;;10343046;23;20020;-92
2024/01/01 18:26:33;;;;;;;36.58;15.38;;;;;;;;;;10338443;23;20099;-91
2024/01/01 18:30:36;;;;;;;28.17;12.02;;;;;;;;;;10337435;23;20020;-92
2024/01/01 18:34:41;;;;;;;39.10;17.30;;;;;;;;;;10337505;23;20095;-92
2024/01/01 18:38:55;;;;;;;41.28;16.10;;;;;;;;;;10315644;23;20437;-92
2024/01/01 18:42:59;;;;;;;38.90;16.13;;;;;;;;;;10355572;23;20391;-92
2024/01/01 18:47:11;;;;;;;36.53;16.05;;;;;;;;;;10338532;23;20032;-91
2024/01/01 18:51:17;;;;;;;41.25;14.70;;;;;;;;;;10315392;23;20487;-91
2024/01/01 18:55:23;;;;;;;36.05;14.18;;;;;;;;;;10359279;23;20027;-92
2024/01/01 18:59:29;;;;;;;35.90;15.45;;;;;;;;;;10341851;23;20016;-93
2024/01/01 19:03:32;;;;;;;36.33;14.32;;;;;;;;;;10315785;23;20017;-93
2024/01/01 19:07:36;;;;;;;40.45;17.33;;;;;;;;;;10338955;23;20066;-91
2024/01/01 19:11:42;;;;;;;35.88;15.32;;;;;;;;;;10339734;23;20019;-93
2024/01/01 19:15:47;;;;;;;40.58;16.05;;;;;;;;;;10359230;23;20039;-90
2024/01/01 19:19:53;;;;;;;35.95;15.50;;;;;;;;;;10314504;23;20016;-93
2024/01/01 19:23:57;;;;;;;39.30;16.02;;;;;;;;;;10358723;23;20016;-92
2024/01/01 19:28:03;;;;;;;38.75;14.73;;;;;;;;;;10341400;23;20024;-92
2024/01/01 19:32:11;;;;;;;47.10;16.20;;;;;;;;;;10358666;23;20344;-93
2024/01/01 19:36:14;;;;;;;29.80;13.90;;;;;;;;;;10314605;23;20027;-92
2024/01/01 19:40:20;;;;;;;36.58;14.20;;;;;;;;;;10357967;23;20020;-93
2024/01/01 19:44:33;;;;;;;31.65;13.85;;;;;;;;;;10340949;23;20441;-93
2024/01/01 19:48:41;;;;;;;37.70;14.32;;;;;;;;;;10338279;23;20352;-92
2024/01/01 19:52:45;;;;;;;39.92;15.10;;;;;;;;;;10313819;23;20020;-91
2024/01/01 19:56:49;;;;;;;33.95;15.13;;;;;;;;;;10340608;23;20020;-91
2024/01/01 20:00:56;;;;;;;39.15;14.48;;;;;;;;;;10342981;23;20051;-93
2024/01/01 20:05:02;;;;;;;35.83;14.68;;;;;;;;;;10315214;23;20012;-91
2024/01/01 20:09:09;;;;;;;34.78;14.13;;;;;;;;;;10345552;23;20034;-91
2024/01/01 20:13:23;;;;;;;35.90;14.63;;;;;;;;;;10317170;23;20027;-93
2024/01/01 20:17:28;;;;;;;36.58;13.77;;;;;;;;;;10360065;23;20016;-93
2024/01/01 20:21:35;;;;;;;29.27;13.85;;;;;;;;;;10340898;23;20050;-92
2024/01/01 20:25:40;;;;;;;33.38;12.80;;;;;;;;;;10360180;23;20020;-92
2024/01/01 20:29:45;;;;;;;33.70;11.35;;;;;;;;;;10358327;23;20024;-92
2024/01/01 20:33:55;;;;;;;33.22;13.88;;;;;;;;;;10341718;23;20078;-93
2024/01/01 20:38:01;;;;;;;23.58;10.40;;;;;;;;;;10360195;23;20020;-94
2024/01/01 20:42:07;;;;;;;26.10;10.80;;;;;;;;;;10360602;23;20031;-93
2024/01/01 20:46:11;;;;;;;27.08;12.45;;;;;;;;;;10342035;23;20040;-91
2024/01/01 20:50:21;;;;;;;25.73;11.27;;;;;;;;;;10368818;23;20019;-92
2024/01/01 20:54:27;;;;;;;26.40;12.05;;;;;;;;;;10346338;23;20073;-92
2024/01/01 20:58:31;;;;;;;28.80;10.55;;;;;;;;;;10359946;23;20016;-92
2024/01/01 21:02:34;;;;;;;36.95;14.15;;;;;;;;;;10340748;23;20027;-91
2024/01/01 21:06:40;;;;;;;33.80;14.07;;;;;;;;;;10339887;23;20020;-91
2024/01/01 21:10:46;;;;;;;33.65;13.07;;;;;;;;;;10313404;23;20099;-90
2024/01/01 21:14:49;;;;;;;31.38;13.00;;;;;;;;;;10357666;23;20036;-92
2024/01/01 21:18:56;;;;;;;33.97;13.35;;;;;;;;;;10344706;23;20026;-93
2024/01/01 21:23:00;;;;;;;34.33;14.20;;;;;;;;;;10344283;23;20020;-92
2024/01/01 21:27:05;;;;;;;28.27;11.77;;;;;;;;;;10338355;23;20020;-92
2024/01/01 21:31:11;;;;;;;27.35;10.88;;;;;;;;;;10344435;23;20043;-92
2024/01/01 21:35:16;;;;;;;32.60;12.63;;;;;;;;;;10340440;23;20023;-92
2024/01/01 21:39:19;;;;;;;33.55;12.15;;;;;;;;;;10338204;23;20051;-91
2024/01/01 21:43:23;;;;;;;26.08;11.18;;;;;;;;;;10338264;23;20016;-93
2024/01/01 21:47:26;;;;;;;29.15;11.02;;;;;;;;;;10337939;23;20083;-92
2024/01/01 21:51:29;;;;;;;27.83;10.77;;;;;;;;;;10339074;23;20091;-92
2024/01/01 21:55:32;;;;;;;31.33;10.60;;;;;;;;;;10312960;23;20483;-93
2024/01/01 21:59:39;;;;;;;23.50;8.48;;;;;;;;;;10338332;23;20047;-92
2024/01/01 22:03:47;;;;;;;26.52;10.48;;;;;;;;;;10357869;23;20072;-91
2024/01/01 22:07:53;;;;;;;22.95;10.55;;;;;;;;;;10359130;23;20448;-92
2024/01/01 22:12:00;;;;;;;23.58;9.70;;;;;;;;;;10339688;23;20015;-93
2024/01/01 22:16:09;;;;;;;17.58;6.57;;;;;;;;;;10356169;23;20023;-92
2024/01/01 22:20:14;;;;;;;22.67;8.23;;;;;;;;;;10354466;23;20027;-92
2024/01/01 22:24:20;;;;;;;20.13;8.68;;;;;;;;;;10337565;23;20016;-91
2024/01/01 22:28:24;;;;;;;22.23;7.47;;;;;;;;;;10337642;23;20020;-91
2024/01/01 22:32:28;;;;;;;24.48;8.60;;;;;;;;;;10337578;23;20051;-91
2024/01/01 22:36:31;;;;;;;9.90;5.13;;;;;;;;;;10337417;23;20016;-93
2024/01/01 22:40:34;;;;;;;14.18;5.45;;;;;;;;;;10337256;23;20023;-92
2024/01/01 22:44:37;;;;;;;18.17;8.07;;;;;;;;;;10336846;23;20150;-92
2024/01/01 22:48:41;;;;;;;16.92;6.47;;;;;;;;;;10337275;23;20500;-94
2024/01/01 22:52:44;;;;;;;13.82;6.30;;;;;;;;;;10337534;23;20095;-91
2024/01/01 22:56:47;;;;;;;16.42;7.05;;;;;;;;;;10337272;23;20031;-92
2024/01/01 23:00:54;;;;;;;18.65;6.90;;;;;;;;;;10337168;23;20024;-92
2024/01/01 23:04:58;;;;;;;14.32;6.43;;;;;;;;;;10354067;23;20016;-93
2024/01/01 23:09:01;;;;;;;20.67;7.95;;;;;;;;;;10337196;23;20040;-92
2024/01/01 23:13:04;;;;;;;23.00;7.93;;;;;;;;;;10337255;23;20032;-92
2024/01/01 23:17:07;;;;;;;17.60;7.80;;;;;;;;;;10337340;23;20436;-93
2024/01/01 23:21:12;;;;;;;19.75;7.65;;;;;;;;;;10337139;23;20021;-92
2024/01/01 23:25:15;;;;;;;19.05;8.07;;;;;;;;;;10337071;23;20052;-93
2024/01/01 23:29:18;;;;;;;19.30;8.18;;;;;;;;;;10337131;23;20091;-92
2024/01/01 23:33:21;;;;;;;20.15;7.85;;;;;;;;;;10337366;23;20043;-92